Country
Station

 

Weather  for  Dutch Harbor  -  United States    United States

  
4 °C (39 °F)
    
 
 

Current METAR for Dutch Harbor is :

PADU 192057Z 32013KT 10SM OVC018 04/02 A2930 RMK AO2

 

This is a report for Dutch Harbor - United States.
 
The report was made 31 minutes ago, at 20:57 UTC .
The wind was blowing at a speed of 6.7 meters per second (15.0 miles per hour) from northwest (320°).
 
The temperature was 4 °C (39 °F), with a dew-point at 2 °C (36 °F).
The temperature felt like -1 °C (31 °F).
 
The atmospheric pressure was 992 hPa (29.30 inHg).
The relative humidity was 86.8%.
 
The sky was overcast from a height of 549 meter (1800 feet)
 
The overall visibility was 16.1 kilometers (10.0 miles).
 

 
 
 
 

Country :   A   B   C   D   E   F   G   H   I   J   K   L   M   N   O   P   Q   R   S   T   U   V   W   Y   Z

 

Site Info  |  Disclaimer  |  Credits  |  Privacy
Contact us  |  Add to favorites
© 2013-2018 METARs - All rights reserved